Decoded Metar for VQPR (PARO in BHUTAN) (IATA:PBH) | Meteo·Mobile Aviation Weather
aviador You're here:

VQPR Decoded Metar

PARO in BHUTAN
Report Time2018-11-18 01:30:00
UTC Time2018-11-18 02:02:43
Flight Rules vfr VFR
Wind110° at 02 kt
W.Decomp.*RWY 15: 1.5 kt HW 1.3 kt LCW
W.Rank110° ranks 14
Current wind is below 110° avg. (6.6)
Visibility9999 m
Phenomena:N/A
Clouds:N/A
Expected CloudBase > 1,200 ft AGL from Temp-Dew spread
CeilingNone
Temp02°C
Dew Point-1°C (81% RH)
AAT-0.8°C
QNH1024 hPa
Raw Report
METAR VQPR 180130Z 11002KT 9999 SKC 02/M01 Q1024=

Extra information for VQPR:More info

Metar Taf Metar & Taf Last 4 Metars F.Rules Stats Wind Profile Meteogram Temp Stats Airport Information Weather charts Add Link Nearby VenuesMetar ALERT Operation Metar Decoded Social comments